Terminal Aerodrome Forecast
Issued by NWS

Home | Current Version | Previous Version | Text Only | Print | Product List | Glossary On
Versions: 1 2 3 4 5 6 7 8 9 10 11 12 13 14 15 16 17 18 19 20 21 22 23 24 25 26 27 28 29 30 31 32
000
FTUS41 KRNK 312332
TAFLWB
TAF
KLWB 312332Z 0100/0124 00000KT P6SM SCT060 OVC110
     FM010700 00000KT 2SM BR FEW060
     FM010900 00000KT 1/4SM FG OVC001
     FM011300 00000KT P6SM SCT060
     FM011800 29005KT P6SM VCSH BKN040=

USA.gov is the U.S. government's official web portal to all federal, state and local government web resources and services.